createdAt,value
2022-12-04T00:01:10.769Z,41.80
2022-12-04T00:03:39.114Z,42.08
2022-12-04T00:06:17.657Z,51.60
2022-12-04T00:08:45.310Z,64.95
2022-12-04T00:11:13.519Z,46.47
2022-12-04T00:13:40.743Z,39.97
2022-12-04T00:16:09.360Z,40.47
2022-12-04T00:18:36.584Z,44.72
2022-12-04T00:21:05.787Z,49.38
2022-12-04T00:23:33.249Z,42.95
2022-12-04T00:26:05.898Z,39.47
2022-12-04T00:28:33.294Z,37.33
2022-12-04T00:31:00.655Z,36.55
2022-12-04T00:33:27.651Z,38.45
2022-12-04T00:36:01.572Z,37.83
2022-12-04T00:38:28.639Z,39.40
2022-12-04T00:40:56.075Z,39.20
2022-12-04T00:43:23.554Z,37.53
2022-12-04T00:45:51.096Z,38.60
2022-12-04T00:48:18.090Z,39.05
2022-12-04T00:50:45.103Z,39.58
2022-12-04T00:53:13.177Z,39.70
2022-12-04T00:55:41.543Z,39.85
2022-12-04T00:58:08.949Z,38.05
2022-12-04T01:00:41.698Z,40.90
2022-12-04T01:03:09.264Z,38.60
2022-12-04T01:05:44.889Z,36.45
2022-12-04T01:08:13.294Z,34.55
2022-12-04T01:10:41.516Z,35.83
2022-12-04T01:13:09.203Z,37.20
2022-12-04T01:15:40.411Z,37.08
2022-12-04T01:18:07.427Z,36.90
2022-12-04T01:20:34.372Z,38.90
2022-12-04T01:23:01.555Z,39.35
2022-12-04T01:25:28.736Z,38.33
2022-12-04T01:27:55.682Z,37.40
2022-12-04T01:30:22.789Z,39.53
2022-12-04T01:32:49.695Z,40.38
2022-12-04T01:35:16.671Z,38.92
2022-12-04T01:37:43.648Z,37.90
2022-12-04T01:40:14.906Z,41.60
2022-12-04T01:42:41.863Z,38.28
2022-12-04T01:45:41.668Z,40.78
2022-12-04T01:48:26.853Z,36.45
2022-12-04T01:50:56.909Z,35.10
2022-12-04T01:53:23.976Z,36.22
2022-12-04T01:55:51.110Z,36.50
2022-12-04T01:58:20.546Z,34.08
2022-12-04T02:00:51.722Z,32.90
2022-12-04T02:03:18.950Z,35.20
2022-12-04T02:05:45.834Z,35.03
2022-12-04T02:08:13.033Z,30.88
2022-12-04T02:10:51.706Z,35.90
2022-12-04T02:13:27.715Z,33.15
2022-12-04T02:16:02.129Z,32.38
2022-12-04T02:18:31.980Z,33.10
2022-12-04T02:21:14.042Z,31.87
2022-12-04T02:23:46.883Z,32.35
2022-12-04T02:26:31.712Z,32.30
2022-12-04T02:29:20.089Z,31.77
2022-12-04T02:32:05.264Z,32.22
2022-12-04T02:34:44.149Z,33.45
2022-12-04T02:37:26.227Z,32.03
2022-12-04T02:40:25.670Z,31.40
2022-12-04T02:43:01.770Z,30.17
2022-12-04T02:45:33.023Z,27.50
2022-12-04T02:48:02.935Z,28.05
2022-12-04T02:50:31.193Z,29.43
2022-12-04T02:53:20.333Z,28.08
2022-12-04T02:55:59.910Z,29.73
2022-12-04T02:58:32.443Z,29.08
2022-12-04T03:01:01.981Z,30.63
2022-12-04T03:03:30.933Z,31.88
2022-12-04T03:06:11.001Z,32.80
2022-12-04T03:08:42.512Z,32.67
2022-12-04T03:11:09.581Z,33.88
2022-12-04T03:13:50.156Z,34.90
2022-12-04T03:16:23.825Z,35.78
2022-12-04T03:19:00.705Z,34.72
2022-12-04T03:21:31.040Z,35.25
2022-12-04T03:24:04.623Z,38.10
2022-12-04T03:26:40.854Z,36.15
2022-12-04T03:29:23.601Z,36.10
2022-12-04T03:31:58.838Z,36.47
2022-12-04T03:34:30.883Z,37.10
2022-12-04T03:37:01.699Z,37.85
2022-12-04T03:39:38.514Z,37.88
2022-12-04T03:42:10.152Z,38.50
2022-12-04T03:45:09.754Z,38.45
2022-12-04T03:47:50.895Z,38.38
2022-12-04T03:50:38.859Z,40.17
2022-12-04T03:53:12.433Z,36.75
2022-12-04T03:55:47.697Z,36.88
2022-12-04T03:58:18.722Z,36.70
2022-12-04T04:00:46.593Z,36.50
2022-12-04T04:03:15.334Z,35.90
2022-12-04T04:05:46.880Z,35.65
2022-12-04T04:08:26.775Z,36.90
2022-12-04T04:11:15.064Z,37.50
2022-12-04T04:14:40.861Z,37.72
2022-12-04T04:17:31.268Z,35.90
2022-12-04T04:20:27.693Z,36.88
2022-12-04T04:23:15.502Z,39.08
2022-12-04T04:25:44.001Z,39.42
2022-12-04T04:28:39.632Z,39.63
2022-12-04T04:31:36.630Z,37.40
2022-12-04T04:34:12.635Z,38.13
2022-12-04T04:37:09.764Z,40.25
2022-12-04T04:39:45.879Z,37.75
2022-12-04T04:42:15.923Z,39.35
2022-12-04T04:45:04.525Z,37.03
2022-12-04T04:47:43.584Z,38.65
2022-12-04T04:50:12.032Z,36.05
2022-12-04T04:52:41.824Z,37.05
2022-12-04T04:55:09.448Z,36.63
2022-12-04T04:57:37.091Z,35.92
2022-12-04T05:00:16.172Z,35.63
2022-12-04T05:02:43.862Z,34.55
2022-12-04T05:05:12.094Z,36.28
2022-12-04T05:07:39.134Z,35.42
2022-12-04T05:10:07.189Z,36.30
2022-12-04T05:12:34.322Z,35.00
2022-12-04T05:15:01.471Z,35.15
2022-12-04T05:17:28.467Z,34.03
2022-12-04T05:19:57.035Z,35.58
2022-12-04T05:22:26.215Z,36.53
2022-12-04T05:24:53.990Z,35.63
2022-12-04T05:27:22.128Z,34.58
2022-12-04T05:29:49.109Z,34.65
2022-12-04T05:32:16.147Z,34.03
2022-12-04T05:34:43.093Z,36.05
2022-12-04T05:37:10.021Z,36.20
2022-12-04T05:39:36.991Z,32.45
2022-12-04T05:42:03.965Z,34.17
2022-12-04T05:44:30.825Z,34.15
2022-12-04T05:46:57.732Z,32.42
2022-12-04T05:49:24.850Z,33.70
2022-12-04T05:51:52.043Z,33.33
2022-12-04T05:54:19.540Z,33.60
2022-12-04T05:56:46.796Z,31.00
2022-12-04T05:59:14.493Z,32.42
2022-12-04T06:01:41.931Z,36.65
2022-12-04T06:04:09.723Z,35.10
2022-12-04T06:06:37.277Z,35.05
2022-12-04T06:09:07.469Z,34.20
2022-12-04T06:11:37.245Z,33.55
2022-12-04T06:14:06.608Z,33.55
2022-12-04T06:16:39.478Z,33.22
2022-12-04T06:19:09.555Z,32.92
2022-12-04T06:21:38.788Z,33.85
2022-12-04T06:24:06.286Z,34.10
2022-12-04T06:26:33.257Z,34.25
2022-12-04T06:29:00.742Z,35.35
2022-12-04T06:31:28.995Z,33.08
2022-12-04T06:33:57.326Z,37.28
2022-12-04T06:36:24.677Z,34.42
2022-12-04T06:38:53.032Z,34.33
2022-12-04T06:41:21.379Z,32.17
2022-12-04T06:43:49.227Z,35.20
2022-12-04T06:46:19.505Z,34.13
2022-12-04T06:48:46.983Z,34.42
2022-12-04T06:51:17.331Z,34.40
2022-12-04T06:53:44.449Z,34.45
2022-12-04T06:56:14.727Z,35.97
2022-12-04T06:58:41.666Z,33.85
2022-12-04T07:01:10.941Z,35.45
2022-12-04T07:03:38.649Z,33.70
2022-12-04T07:06:15.695Z,33.90
2022-12-04T07:08:43.833Z,34.70
2022-12-04T07:11:11.794Z,35.28
2022-12-04T07:13:38.885Z,32.20
2022-12-04T07:16:07.549Z,34.05
2022-12-04T07:18:35.810Z,34.10
2022-12-04T07:21:07.886Z,33.75
2022-12-04T07:23:35.768Z,34.03
2022-12-04T07:26:07.978Z,34.28
2022-12-04T07:28:36.369Z,34.13
2022-12-04T07:31:12.274Z,33.63
2022-12-04T07:33:39.621Z,34.15
2022-12-04T07:36:08.483Z,34.17
2022-12-04T07:38:36.086Z,33.70
2022-12-04T07:41:04.936Z,33.85
2022-12-04T07:43:32.187Z,34.42
2022-12-04T07:46:00.195Z,33.45
2022-12-04T07:48:33.036Z,33.47
2022-12-04T07:51:11.221Z,35.72
2022-12-04T07:53:38.791Z,34.53
2022-12-04T07:56:06.400Z,35.60
2022-12-04T07:58:33.960Z,36.45
2022-12-04T08:01:11.357Z,35.40
2022-12-04T08:03:45.268Z,33.05
2022-12-04T08:06:15.168Z,33.47
2022-12-04T08:08:42.149Z,34.67
2022-12-04T08:11:12.091Z,34.83
2022-12-04T08:13:39.182Z,33.58
2022-12-04T08:16:07.650Z,34.58
2022-12-04T08:18:34.889Z,34.38
2022-12-04T08:21:13.204Z,36.30
2022-12-04T08:23:41.680Z,35.78
2022-12-04T08:26:09.266Z,34.78
2022-12-04T08:28:36.802Z,33.30
2022-12-04T08:31:18.875Z,34.00
2022-12-04T08:33:46.873Z,34.67
2022-12-04T08:36:16.493Z,35.85
2022-12-04T08:38:43.864Z,33.58
2022-12-04T08:41:13.596Z,31.52
2022-12-04T08:43:41.220Z,33.60
2022-12-04T08:46:11.168Z,34.08
2022-12-04T08:48:38.521Z,34.35
2022-12-04T08:51:08.028Z,33.33
2022-12-04T08:53:36.822Z,34.85
2022-12-04T08:56:04.964Z,34.15
2022-12-04T08:58:32.037Z,33.35
2022-12-04T09:01:07.741Z,31.60
2022-12-04T09:03:35.458Z,33.17
2022-12-04T09:06:03.322Z,32.95
2022-12-04T09:08:30.659Z,32.53
2022-12-04T09:11:04.851Z,34.22
2022-12-04T09:13:31.945Z,34.53
2022-12-04T09:15:59.247Z,33.10
2022-12-04T09:18:26.346Z,33.17
2022-12-04T09:20:58.038Z,32.88
2022-12-04T09:23:26.226Z,33.72
2022-12-04T09:25:53.440Z,35.17
2022-12-04T09:28:20.644Z,34.40
2022-12-04T09:30:57.709Z,32.58
2022-12-04T09:33:24.749Z,33.38
2022-12-04T09:35:51.683Z,33.58
2022-12-04T09:38:18.676Z,33.58
2022-12-04T09:40:57.980Z,33.97
2022-12-04T09:43:39.131Z,35.55
2022-12-04T09:46:12.558Z,33.92
2022-12-04T09:48:41.997Z,35.75
2022-12-04T09:51:18.793Z,35.38
2022-12-04T09:53:49.729Z,32.55
2022-12-04T09:56:20.165Z,33.17
2022-12-04T09:59:03.294Z,31.88
2022-12-04T10:01:47.374Z,32.47
2022-12-04T10:04:15.602Z,31.98
2022-12-04T10:07:13.661Z,33.40
2022-12-04T10:09:49.708Z,31.50
2022-12-04T10:12:35.135Z,31.00
2022-12-04T10:15:14.297Z,30.17
2022-12-04T10:17:58.483Z,29.40
2022-12-04T10:20:56.237Z,29.17
2022-12-04T10:23:42.820Z,28.00
2022-12-04T10:26:17.886Z,27.27
2022-12-04T10:28:55.610Z,25.83
2022-12-04T10:31:24.012Z,25.42
2022-12-04T10:33:54.219Z,26.35
2022-12-04T10:36:25.743Z,22.60
2022-12-04T10:39:01.903Z,23.17
2022-12-04T10:41:34.305Z,23.65
2022-12-04T10:44:01.321Z,23.10
2022-12-04T10:46:33.677Z,24.20
2022-12-04T10:49:24.924Z,24.15
2022-12-04T10:51:51.888Z,22.92
2022-12-04T10:54:21.899Z,21.83
2022-12-04T10:57:09.769Z,22.65
2022-12-04T10:59:50.564Z,21.88
2022-12-04T11:05:01.787Z,21.58
2022-12-04T11:07:30.885Z,20.63
2022-12-04T11:10:00.545Z,20.65
2022-12-04T11:12:27.530Z,21.13
2022-12-04T11:15:06.880Z,21.10
2022-12-04T11:17:34.089Z,21.35
2022-12-04T11:20:07.019Z,23.05
2022-12-04T11:22:54.280Z,22.60
2022-12-04T11:25:22.565Z,20.20
2022-12-04T11:27:52.426Z,20.08
2022-12-04T11:30:34.814Z,21.47
2022-12-04T11:33:02.497Z,20.05
2022-12-04T11:35:30.243Z,21.23
2022-12-04T11:38:17.898Z,22.15
2022-12-04T11:40:53.195Z,22.90
2022-12-04T11:43:21.106Z,22.00
2022-12-04T11:46:00.246Z,22.65
2022-12-04T11:48:27.692Z,22.65
2022-12-04T11:51:08.669Z,23.77
2022-12-04T11:53:50.026Z,25.02
2022-12-04T11:56:36.110Z,22.98
2022-12-04T11:59:49.494Z,24.33
2022-12-04T12:02:45.599Z,24.17
2022-12-04T12:05:45.078Z,25.58
2022-12-04T12:08:27.238Z,24.15
2022-12-04T12:11:03.158Z,24.88
2022-12-04T12:13:48.358Z,25.73
2022-12-04T12:16:18.040Z,24.08
2022-12-04T12:18:51.110Z,24.02
2022-12-04T12:21:36.670Z,24.38
2022-12-04T12:24:27.254Z,25.65
2022-12-04T12:27:40.425Z,25.33
2022-12-04T12:30:12.916Z,27.60
2022-12-04T12:32:49.215Z,27.60
2022-12-04T12:35:27.523Z,27.75
2022-12-04T12:37:58.451Z,28.77
2022-12-04T12:40:39.131Z,29.58
2022-12-04T12:43:16.955Z,29.73
2022-12-04T12:45:50.132Z,30.98
2022-12-04T12:48:29.223Z,31.23
2022-12-04T12:51:28.960Z,29.75
2022-12-04T12:53:59.099Z,30.02
2022-12-04T12:56:38.675Z,28.83
2022-12-04T12:59:10.098Z,29.42
2022-12-04T13:01:40.397Z,31.92
2022-12-04T13:04:15.109Z,29.17
2022-12-04T13:06:44.117Z,27.30
2022-12-04T13:09:30.321Z,27.00
2022-12-04T13:12:04.877Z,28.38
2022-12-04T13:14:31.790Z,27.25
2022-12-04T13:17:06.296Z,30.63
2022-12-04T13:19:41.977Z,30.33
2022-12-04T13:22:08.755Z,29.27
2022-12-04T13:25:05.130Z,29.65
2022-12-04T13:28:03.452Z,29.38
2022-12-04T13:30:33.364Z,28.70
2022-12-04T13:33:37.588Z,31.17
2022-12-04T13:36:49.512Z,32.75
2022-12-04T13:39:19.942Z,35.20
2022-12-04T13:41:47.109Z,34.60
2022-12-04T13:44:20.773Z,36.03
2022-12-04T13:46:56.834Z,32.55
2022-12-04T13:49:27.351Z,34.55
2022-12-04T13:51:55.730Z,34.08
2022-12-04T13:54:24.139Z,32.25
2022-12-04T13:56:54.158Z,37.10
2022-12-04T14:00:42.975Z,28.48
2022-12-04T14:03:36.413Z,30.30
2022-12-04T14:06:07.096Z,28.90
2022-12-04T14:08:39.905Z,28.75
2022-12-04T14:11:14.546Z,27.58
2022-12-04T14:19:37.722Z,25.77
2022-12-04T14:23:36.896Z,25.48
2022-12-04T14:26:05.620Z,29.27
2022-12-04T14:28:36.035Z,27.95
2022-12-04T14:31:14.648Z,28.75
2022-12-04T14:34:04.431Z,29.85
2022-12-04T14:36:35.375Z,30.38
2022-12-04T14:39:17.139Z,31.67
2022-12-04T14:41:44.067Z,31.80
2022-12-04T14:44:31.810Z,30.15
2022-12-04T14:47:17.159Z,29.83
2022-12-04T14:49:43.820Z,32.83
2022-12-04T14:52:10.463Z,28.63
2022-12-04T14:54:51.975Z,29.23
2022-12-04T14:57:18.659Z,30.20
2022-12-04T14:59:49.509Z,28.67
2022-12-04T15:02:18.215Z,29.83
2022-12-04T15:04:46.647Z,28.95
2022-12-04T15:07:28.532Z,31.40
2022-12-04T15:10:15.522Z,31.63
2022-12-04T15:12:45.254Z,28.92
2022-12-04T15:15:25.952Z,32.65
2022-12-04T15:20:20.128Z,26.50
2022-12-04T15:22:47.612Z,26.67
2022-12-04T15:25:22.522Z,28.70
2022-12-04T15:27:50.694Z,26.67
2022-12-04T15:30:18.767Z,26.73
2022-12-04T15:32:46.767Z,25.75
2022-12-04T15:35:17.431Z,29.75
2022-12-04T15:40:28.398Z,29.65
2022-12-04T15:43:06.180Z,28.98
2022-12-04T15:45:34.750Z,29.15
2022-12-04T15:48:01.714Z,29.80
2022-12-04T15:50:29.501Z,30.67
2022-12-04T15:53:02.444Z,30.95
2022-12-04T15:55:30.929Z,26.98
2022-12-04T15:57:57.657Z,31.30
2022-12-04T16:00:27.531Z,28.95
2022-12-04T16:02:55.309Z,29.23
2022-12-04T16:05:22.376Z,30.45
2022-12-04T16:07:50.521Z,27.65
2022-12-04T16:10:24.980Z,29.52
2022-12-04T16:13:02.641Z,31.67
2022-12-04T16:15:36.735Z,32.70
2022-12-04T16:18:06.177Z,31.45
2022-12-04T16:20:37.021Z,30.00
2022-12-04T16:23:05.024Z,28.40
2022-12-04T16:25:32.294Z,28.25
2022-12-04T16:28:02.518Z,27.63
2022-12-04T16:30:32.114Z,27.52
2022-12-04T16:32:58.829Z,28.45
2022-12-04T16:35:25.720Z,26.80
2022-12-04T16:37:52.752Z,27.77
2022-12-04T16:40:19.549Z,28.38
2022-12-04T16:42:46.317Z,28.20
2022-12-04T16:45:19.180Z,32.92
2022-12-04T16:47:47.630Z,30.25
2022-12-04T16:50:14.524Z,30.00
2022-12-04T16:52:41.381Z,29.70
2022-12-04T16:55:35.819Z,28.70
2022-12-04T16:58:02.952Z,28.67
2022-12-04T17:00:29.902Z,25.58
2022-12-04T17:02:56.888Z,28.73
2022-12-04T17:05:27.829Z,27.98
2022-12-04T17:07:57.393Z,28.50
2022-12-04T17:10:24.670Z,29.67
2022-12-04T17:12:56.383Z,26.75
2022-12-04T17:15:23.209Z,25.58
2022-12-04T17:17:50.581Z,27.30
2022-12-04T17:20:18.197Z,28.77
2022-12-04T17:22:45.018Z,27.75
2022-12-04T17:25:12.270Z,27.88
2022-12-04T17:27:39.446Z,31.73
2022-12-04T17:30:07.222Z,37.03
2022-12-04T17:32:35.260Z,32.55
2022-12-04T17:35:02.908Z,27.88
2022-12-04T17:37:29.781Z,28.73
2022-12-04T17:39:56.873Z,28.52
2022-12-04T17:42:23.638Z,24.88
2022-12-04T17:44:50.529Z,24.55
2022-12-04T17:47:19.040Z,26.23
2022-12-04T17:49:45.869Z,24.35
2022-12-04T17:52:12.665Z,26.65
2022-12-04T17:54:39.568Z,24.98
2022-12-04T17:57:06.670Z,32.67
2022-12-04T17:59:33.472Z,28.80
2022-12-04T18:05:35.694Z,28.52
2022-12-04T18:08:02.457Z,25.92
2022-12-04T18:14:57.345Z,23.45
2022-12-04T18:17:24.146Z,26.42
2022-12-04T18:19:50.999Z,27.25
